Santa Rosa — A8ZS7 — position and weather

sailwx.info

Track history (hours):
 
Tides and Currents Weather Stations Pressure Air Temp Water Temp Dewpoint Dewpoint Depression Visibility Wind Speed Wind Dir Waves Ship Positions

Santa Rosa

Last reported at 2017-Oct-25 18:46 UTC. Time now 2017-Nov-19 21:59 UTC.
Position N 30°36' E 122°05'.
Warning: this ship's position is 25 days out of date.

Length 300 m; draft 10.5 m.

Type: Cargo ship. MMSI: 636092266.

Date/timePositionNaut miles runAvg speedWind from/ knotsBaromVisibWave heightAir tempDewpointWater temp
2017-Oct-25 18:46N 30°36' E 122°05'1 2.2
2017-Oct-25 18:26N 30°36' E 122°06'  
2017-Oct-20 00:46N 24°14' E 118°31'414.1
2017-Oct-20 00:30N 24°14' E 118°27'714.7
2017-Oct-20 00:00N 24°14' E 118°19'714.8
2017-Oct-19 23:30N 24°18' E 118°12'713.3
2017-Oct-19 23:00N 24°23' E 118°07'611.0
2017-Oct-19 22:30N 24°26' E 118°02'1 2.6
2017-Oct-19 22:01N 24°27' E 118°01'0 0.0
2017-Oct-19 21:31N 24°27' E 118°01'0 0.0
2017-Oct-19 20:58N 24°27' E 118°01'0 0.0
2017-Oct-19 20:28N 24°27' E 118°01'0 0.0
2017-Oct-19 19:58N 24°27' E 118°01'0 0.0
2017-Oct-19 19:28N 24°27' E 118°01'0 0.0
2017-Oct-19 18:58N 24°27' E 118°01'0 0.0
2017-Oct-19 18:28N 24°27' E 118°01'0 0.0
2017-Oct-19 17:07N 24°27' E 118°01'0 0.0
2017-Oct-19 16:58N 24°27' E 118°01'0 0.0
2017-Oct-19 16:28N 24°27' E 118°01'0 0.0
2017-Oct-19 15:58N 24°27' E 118°01'0 0.0
2017-Oct-19 15:28N 24°27' E 118°01'0 0.0
2017-Oct-19 14:52N 24°27' E 118°01'0 0.0
2017-Oct-19 14:28N 24°27' E 118°01'0 0.0
2017-Oct-19 13:58N 24°27' E 118°01'0 0.0
2017-Oct-19 13:30N 24°27' E 118°01'2 4.2
2017-Oct-19 13:00N 24°26' E 118°03'510.7
2017-Oct-19 12:30N 24°23' E 118°08'4 8.2
2017-Oct-19 12:00N 24°20' E 118°11'612.6
2017-Oct-19 11:30N 24°15' E 118°16'714.7
2017-Oct-19 11:00N 24°10' E 118°21'713.0
2017-Oct-19 10:30N 24°03' E 118°20'20817.6
2017-Oct-18 22:42N 22°14' E 115°07'418.7
2017-Oct-18 22:29N 22°14' E 115°03'1019.2
2017-Oct-18 21:58N 22°16' E 114°52'919.2
2017-Oct-18 21:30N 22°18' E 114°43'918.8
2017-Oct-18 21:00N 22°20' E 114°33'816.6
2017-Oct-18 20:30N 22°27' E 114°28'510.9
2017-Oct-18 20:00N 22°31' E 114°24'713.5
2017-Oct-18 19:30N 22°34' E 114°17'1 2.7
2017-Oct-18 19:01N 22°34' E 114°16'0 0.0
2017-Oct-18 18:31N 22°34' E 114°16'0 0.0
2017-Oct-18 18:00N 22°34' E 114°16'0 0.0
2017-Oct-18 17:29N 22°34' E 114°16'0 0.0
2017-Oct-18 16:59N 22°34' E 114°16'0 0.0
2017-Oct-18 16:29N 22°34' E 114°16'0 0.0
2017-Oct-18 15:59N 22°34' E 114°16'0 0.0
2017-Oct-18 15:29N 22°34' E 114°16'0 0.0
2017-Oct-18 14:59N 22°34' E 114°16'0 0.0
2017-Oct-18 13:59N 22°34' E 114°16'0 0.0
2017-Oct-18 13:29N 22°34' E 114°16'0 0.0
2017-Oct-18 12:59N 22°34' E 114°16'0 0.0
2017-Oct-18 12:29N 22°34' E 114°16'0 0.0
2017-Oct-18 11:59N 22°34' E 114°16'0 0.0
2017-Oct-18 11:29N 22°34' E 114°16'0 0.0
2017-Oct-18 10:59N 22°34' E 114°16'0 0.0
2017-Oct-18 10:29N 22°34' E 114°16'0 0.0
2017-Oct-18 09:59N 22°34' E 114°16'0 0.0
2017-Oct-18 09:29N 22°34' E 114°16'0 0.0
2017-Oct-18 08:59N 22°34' E 114°16'0 0.0
2017-Oct-18 08:29N 22°34' E 114°16'0 0.0
2017-Oct-18 07:56N 22°34' E 114°16'0 0.0
2017-Oct-18 07:29N 22°34' E 114°16'0 0.0
2017-Oct-18 06:56N 22°34' E 114°16'0 0.0
2017-Oct-18 06:29N 22°34' E 114°16'0 0.0
2017-Oct-18 05:59N 22°34' E 114°16'0 0.0
2017-Oct-18 05:26N 22°34' E 114°16'0 0.0
2017-Oct-18 04:59N 22°34' E 114°16'0 0.0
2017-Oct-18 04:29N 22°34' E 114°16'0 0.3
2017-Oct-18 03:59N 22°34' E 114°16'3 5.6
2017-Oct-18 03:30N 22°34' E 114°19'612.1
2017-Oct-18 03:00N 22°31' E 114°25'5 9.8
2017-Oct-18 02:30N 22°28' E 114°28'612.0
2017-Oct-18 02:01N 22°22' E 114°30'713.9
2017-Oct-18 01:28N 22°14' E 114°30'5 9.9
2017-Oct-18 00:57N 22°09' E 114°31'3 7.2
2017-Oct-18 00:30N 22°08' E 114°28'4 7.7
2017-Oct-18 00:00N 22°07' E 114°24'5 9.1
2017-Oct-17 23:30N 22°06' E 114°19'2 0.1
2017-Oct-17 02:03N 22°08' E 114°17'213.0
2017-Oct-17 01:55N 22°08' E 114°19'1511.4
2017-Oct-17 00:38N 22°10' E 114°35'1 8.9
2017-Oct-17 00:30N 22°10' E 114°36'4 9.0
2017-Oct-17 00:00N 22°11' E 114°41'4 8.9
2017-Oct-16 23:30N 22°11' E 114°45'5 9.1
2017-Oct-16 23:00N 22°11' E 114°50'4 7.0
2017-Oct-16 22:25N 22°11' E 114°55'1 3.3
2017-Oct-16 22:00N 22°11' E 114°56'1 1.3
2017-Oct-16 21:15N 22°10' E 114°57'1 3.2
2017-Oct-16 21:00N 22°11' E 114°58'5 3.2
2017-Oct-16 19:17N 22°13' E 115°04'2 6.2
2017-Oct-16 19:00N 22°13' E 115°05'4 8.6
2017-Oct-16 18:30N 22°13' E 115°10'3 6.0
2017-Oct-16 17:56N 22°16' E 115°12'4 8.4
2017-Oct-16 17:30N 22°19' E 115°15'  
Track history (hours):
 
Tides and Currents Weather Stations Pressure Air Temp Water Temp Dewpoint Dewpoint Depression Visibility Wind Speed Wind Dir Waves Ship Positions

Santa Rosa

Last reported at 2017-Oct-25 18:46 UTC. Time now 2017-Nov-19 21:59 UTC.
Position N 30°36' E 122°05'.
Warning: this ship's position is 25 days out of date.

Length 300 m; draft 10.5 m.

Type: Cargo ship. MMSI: 636092266.

Date/timePositionNaut miles runAvg speedWind from/ knotsBaromVisibWave heightAir tempDewpointWater temp
2017-Oct-25 18:46N 30°36' E 122°05'1 2.2
2017-Oct-25 18:26N 30°36' E 122°06'  
2017-Oct-20 00:46N 24°14' E 118°31'414.1
2017-Oct-20 00:30N 24°14' E 118°27'714.7
2017-Oct-20 00:00N 24°14' E 118°19'714.8
2017-Oct-19 23:30N 24°18' E 118°12'713.3
2017-Oct-19 23:00N 24°23' E 118°07'611.0
2017-Oct-19 22:30N 24°26' E 118°02'1 2.6
2017-Oct-19 22:01N 24°27' E 118°01'0 0.0
2017-Oct-19 21:31N 24°27' E 118°01'0 0.0
2017-Oct-19 20:58N 24°27' E 118°01'0 0.0
2017-Oct-19 20:28N 24°27' E 118°01'0 0.0
2017-Oct-19 19:58N 24°27' E 118°01'0 0.0
2017-Oct-19 19:28N 24°27' E 118°01'0 0.0
2017-Oct-19 18:58N 24°27' E 118°01'0 0.0
2017-Oct-19 18:28N 24°27' E 118°01'0 0.0
2017-Oct-19 17:07N 24°27' E 118°01'0 0.0
2017-Oct-19 16:58N 24°27' E 118°01'0 0.0
2017-Oct-19 16:28N 24°27' E 118°01'0 0.0
2017-Oct-19 15:58N 24°27' E 118°01'0 0.0
2017-Oct-19 15:28N 24°27' E 118°01'0 0.0
2017-Oct-19 14:52N 24°27' E 118°01'0 0.0
2017-Oct-19 14:28N 24°27' E 118°01'0 0.0
2017-Oct-19 13:58N 24°27' E 118°01'0 0.0
2017-Oct-19 13:30N 24°27' E 118°01'2 4.2
2017-Oct-19 13:00N 24°26' E 118°03'510.7
2017-Oct-19 12:30N 24°23' E 118°08'4 8.2
2017-Oct-19 12:00N 24°20' E 118°11'612.6
2017-Oct-19 11:30N 24°15' E 118°16'714.7
2017-Oct-19 11:00N 24°10' E 118°21'713.0
2017-Oct-19 10:30N 24°03' E 118°20'20817.6
2017-Oct-18 22:42N 22°14' E 115°07'418.7
2017-Oct-18 22:29N 22°14' E 115°03'1019.2
2017-Oct-18 21:58N 22°16' E 114°52'919.2
2017-Oct-18 21:30N 22°18' E 114°43'918.8
2017-Oct-18 21:00N 22°20' E 114°33'816.6
2017-Oct-18 20:30N 22°27' E 114°28'510.9
2017-Oct-18 20:00N 22°31' E 114°24'713.5
2017-Oct-18 19:30N 22°34' E 114°17'1 2.7
2017-Oct-18 19:01N 22°34' E 114°16'0 0.0
2017-Oct-18 18:31N 22°34' E 114°16'0 0.0
2017-Oct-18 18:00N 22°34' E 114°16'0 0.0
2017-Oct-18 17:29N 22°34' E 114°16'0 0.0
2017-Oct-18 16:59N 22°34' E 114°16'0 0.0
2017-Oct-18 16:29N 22°34' E 114°16'0 0.0
2017-Oct-18 15:59N 22°34' E 114°16'0 0.0
2017-Oct-18 15:29N 22°34' E 114°16'0 0.0
2017-Oct-18 14:59N 22°34' E 114°16'0 0.0
2017-Oct-18 13:59N 22°34' E 114°16'0 0.0
2017-Oct-18 13:29N 22°34' E 114°16'0 0.0
2017-Oct-18 12:59N 22°34' E 114°16'0 0.0
2017-Oct-18 12:29N 22°34' E 114°16'0 0.0
2017-Oct-18 11:59N 22°34' E 114°16'0 0.0
2017-Oct-18 11:29N 22°34' E 114°16'0 0.0
2017-Oct-18 10:59N 22°34' E 114°16'0 0.0
2017-Oct-18 10:29N 22°34' E 114°16'0 0.0
2017-Oct-18 09:59N 22°34' E 114°16'0 0.0
2017-Oct-18 09:29N 22°34' E 114°16'0 0.0
2017-Oct-18 08:59N 22°34' E 114°16'0 0.0
2017-Oct-18 08:29N 22°34' E 114°16'0 0.0
2017-Oct-18 07:56N 22°34' E 114°16'0 0.0
2017-Oct-18 07:29N 22°34' E 114°16'0 0.0
2017-Oct-18 06:56N 22°34' E 114°16'0 0.0
2017-Oct-18 06:29N 22°34' E 114°16'0 0.0
2017-Oct-18 05:59N 22°34' E 114°16'0 0.0
2017-Oct-18 05:26N 22°34' E 114°16'0 0.0
2017-Oct-18 04:59N 22°34' E 114°16'0 0.0
2017-Oct-18 04:29N 22°34' E 114°16'0 0.3
2017-Oct-18 03:59N 22°34' E 114°16'3 5.6
2017-Oct-18 03:30N 22°34' E 114°19'612.1
2017-Oct-18 03:00N 22°31' E 114°25'5 9.8
2017-Oct-18 02:30N 22°28' E 114°28'612.0
2017-Oct-18 02:01N 22°22' E 114°30'713.9
2017-Oct-18 01:28N 22°14' E 114°30'5 9.9
2017-Oct-18 00:57N 22°09' E 114°31'3 7.2
2017-Oct-18 00:30N 22°08' E 114°28'4 7.7
2017-Oct-18 00:00N 22°07' E 114°24'5 9.1
2017-Oct-17 23:30N 22°06' E 114°19'2 0.1
2017-Oct-17 02:03N 22°08' E 114°17'213.0
2017-Oct-17 01:55N 22°08' E 114°19'1511.4
2017-Oct-17 00:38N 22°10' E 114°35'1 8.9
2017-Oct-17 00:30N 22°10' E 114°36'4 9.0
2017-Oct-17 00:00N 22°11' E 114°41'4 8.9
2017-Oct-16 23:30N 22°11' E 114°45'5 9.1
2017-Oct-16 23:00N 22°11' E 114°50'4 7.0
2017-Oct-16 22:25N 22°11' E 114°55'1 3.3
2017-Oct-16 22:00N 22°11' E 114°56'1 1.3
2017-Oct-16 21:15N 22°10' E 114°57'1 3.2
2017-Oct-16 21:00N 22°11' E 114°58'5 3.2
2017-Oct-16 19:17N 22°13' E 115°04'2 6.2
2017-Oct-16 19:00N 22°13' E 115°05'4 8.6
2017-Oct-16 18:30N 22°13' E 115°10'3 6.0
2017-Oct-16 17:56N 22°16' E 115°12'4 8.4
2017-Oct-16 17:30N 22°19' E 115°15'  

Dump ship's entire track history